sensor_id;sensor_type;location;lat;lon;timestamp;P1;durP1;ratioP1;P2;durP2;ratioP2
15635;SDS011;7917;50.818;6.972;2023-12-28T00:01:43;4.43;;;2.13;;
15635;SDS011;7917;50.818;6.972;2023-12-28T00:04:10;3.60;;;1.95;;
15635;SDS011;7917;50.818;6.972;2023-12-28T00:06:37;3.53;;;2.13;;
15635;SDS011;7917;50.818;6.972;2023-12-28T00:09:03;3.45;;;2.20;;
15635;SDS011;7917;50.818;6.972;2023-12-28T00:11:30;2.97;;;1.70;;
15635;SDS011;7917;50.818;6.972;2023-12-28T00:13:56;5.35;;;2.25;;
15635;SDS011;7917;50.818;6.972;2023-12-28T00:16:23;3.53;;;1.80;;
15635;SDS011;7917;50.818;6.972;2023-12-28T00:18:50;3.17;;;2.28;;
15635;SDS011;7917;50.818;6.972;2023-12-28T00:21:17;4.25;;;1.90;;
15635;SDS011;7917;50.818;6.972;2023-12-28T00:23:44;6.15;;;2.35;;
15635;SDS011;7917;50.818;6.972;2023-12-28T00:26:10;4.38;;;2.25;;
15635;SDS011;7917;50.818;6.972;2023-12-28T00:28:36;2.55;;;1.90;;
15635;SDS011;7917;50.818;6.972;2023-12-28T00:31:03;3.40;;;2.00;;
15635;SDS011;7917;50.818;6.972;2023-12-28T00:33:29;2.20;;;1.70;;
15635;SDS011;7917;50.818;6.972;2023-12-28T00:35:56;1.95;;;1.75;;
15635;SDS011;7917;50.818;6.972;2023-12-28T00:38:24;1.90;;;1.70;;
15635;SDS011;7917;50.818;6.972;2023-12-28T00:40:50;2.30;;;1.98;;
15635;SDS011;7917;50.818;6.972;2023-12-28T00:43:17;3.10;;;1.70;;
15635;SDS011;7917;50.818;6.972;2023-12-28T00:45:43;2.40;;;1.70;;
15635;SDS011;7917;50.818;6.972;2023-12-28T00:48:10;2.92;;;1.70;;
15635;SDS011;7917;50.818;6.972;2023-12-28T00:50:39;3.33;;;1.77;;
15635;SDS011;7917;50.818;6.972;2023-12-28T00:53:06;1.75;;;1.42;;
15635;SDS011;7917;50.818;6.972;2023-12-28T00:55:33;4.57;;;1.60;;
15635;SDS011;7917;50.818;6.972;2023-12-28T00:57:59;2.00;;;1.67;;
15635;SDS011;7917;50.818;6.972;2023-12-28T01:00:26;2.28;;;1.88;;
15635;SDS011;7917;50.818;6.972;2023-12-28T01:02:55;3.22;;;1.65;;
15635;SDS011;7917;50.818;6.972;2023-12-28T01:05:21;3.45;;;1.67;;
15635;SDS011;7917;50.818;6.972;2023-12-28T01:07:51;1.73;;;1.50;;
15635;SDS011;7917;50.818;6.972;2023-12-28T01:10:17;1.80;;;1.25;;
15635;SDS011;7917;50.818;6.972;2023-12-28T01:12:45;2.95;;;1.60;;
15635;SDS011;7917;50.818;6.972;2023-12-28T01:15:11;3.20;;;1.27;;
15635;SDS011;7917;50.818;6.972;2023-12-28T01:17:38;1.75;;;1.45;;
15635;SDS011;7917;50.818;6.972;2023-12-28T01:20:05;2.67;;;1.40;;
15635;SDS011;7917;50.818;6.972;2023-12-28T01:22:32;1.42;;;1.33;;
15635;SDS011;7917;50.818;6.972;2023-12-28T01:24:58;1.60;;;1.50;;
15635;SDS011;7917;50.818;6.972;2023-12-28T01:27:25;1.83;;;1.42;;
15635;SDS011;7917;50.818;6.972;2023-12-28T01:29:52;1.25;;;1.15;;
15635;SDS011;7917;50.818;6.972;2023-12-28T01:32:19;2.50;;;1.35;;
15635;SDS011;7917;50.818;6.972;2023-12-28T01:34:45;1.48;;;1.38;;
15635;SDS011;7917;50.818;6.972;2023-12-28T01:37:11;2.03;;;1.15;;
15635;SDS011;7917;50.818;6.972;2023-12-28T01:39:38;1.60;;;1.10;;
15635;SDS011;7917;50.818;6.972;2023-12-28T01:42:04;1.20;;;1.10;;
15635;SDS011;7917;50.818;6.972;2023-12-28T01:44:30;1.80;;;1.30;;
15635;SDS011;7917;50.818;6.972;2023-12-28T01:46:58;1.20;;;1.10;;
15635;SDS011;7917;50.818;6.972;2023-12-28T01:49:24;0.90;;;0.80;;
15635;SDS011;7917;50.818;6.972;2023-12-28T01:51:51;1.50;;;1.20;;
15635;SDS011;7917;50.818;6.972;2023-12-28T01:54:17;1.13;;;1.02;;
15635;SDS011;7917;50.818;6.972;2023-12-28T01:56:44;2.42;;;1.10;;
15635;SDS011;7917;50.818;6.972;2023-12-28T01:59:11;1.05;;;0.93;;
15635;SDS011;7917;50.818;6.972;2023-12-28T02:01:37;0.85;;;0.80;;
15635;SDS011;7917;50.818;6.972;2023-12-28T02:04:04;1.30;;;0.90;;
15635;SDS011;7917;50.818;6.972;2023-12-28T02:06:31;0.93;;;0.90;;
15635;SDS011;7917;50.818;6.972;2023-12-28T02:08:58;1.38;;;1.00;;
15635;SDS011;7917;50.818;6.972;2023-12-28T02:11:24;1.48;;;1.10;;
15635;SDS011;7917;50.818;6.972;2023-12-28T02:13:50;2.03;;;0.95;;
15635;SDS011;7917;50.818;6.972;2023-12-28T02:16:18;1.13;;;1.02;;
15635;SDS011;7917;50.818;6.972;2023-12-28T02:18:51;1.08;;;0.95;;
15635;SDS011;7917;50.818;6.972;2023-12-28T02:21:20;0.95;;;0.95;;
15635;SDS011;7917;50.818;6.972;2023-12-28T02:23:50;1.00;;;1.00;;
15635;SDS011;7917;50.818;6.972;2023-12-28T02:26:17;1.40;;;1.30;;
15635;SDS011;7917;50.818;6.972;2023-12-28T02:28:43;1.30;;;1.20;;
15635;SDS011;7917;50.818;6.972;2023-12-28T02:31:11;1.33;;;1.23;;
15635;SDS011;7917;50.818;6.972;2023-12-28T02:33:53;1.55;;;1.30;;
15635;SDS011;7917;50.818;6.972;2023-12-28T02:36:34;1.35;;;1.25;;
15635;SDS011;7917;50.818;6.972;2023-12-28T02:39:03;1.35;;;1.25;;
15635;SDS011;7917;50.818;6.972;2023-12-28T02:41:31;1.98;;;1.55;;
15635;SDS011;7917;50.818;6.972;2023-12-28T02:43:59;1.70;;;1.60;;
15635;SDS011;7917;50.818;6.972;2023-12-28T02:46:26;1.90;;;1.55;;
15635;SDS011;7917;50.818;6.972;2023-12-28T02:48:52;2.50;;;1.20;;
15635;SDS011;7917;50.818;6.972;2023-12-28T02:51:22;1.48;;;1.38;;
15635;SDS011;7917;50.818;6.972;2023-12-28T02:53:49;1.58;;;1.40;;
15635;SDS011;7917;50.818;6.972;2023-12-28T02:56:15;1.65;;;1.55;;
15635;SDS011;7917;50.818;6.972;2023-12-28T02:58:42;1.98;;;1.77;;
15635;SDS011;7917;50.818;6.972;2023-12-28T03:01:08;3.03;;;1.65;;
15635;SDS011;7917;50.818;6.972;2023-12-28T03:03:34;2.08;;;1.40;;
15635;SDS011;7917;50.818;6.972;2023-12-28T03:06:01;2.67;;;1.90;;
15635;SDS011;7917;50.818;6.972;2023-12-28T03:08:27;2.50;;;1.67;;
15635;SDS011;7917;50.818;6.972;2023-12-28T03:10:53;2.40;;;1.60;;
15635;SDS011;7917;50.818;6.972;2023-12-28T03:13:20;2.80;;;1.85;;
15635;SDS011;7917;50.818;6.972;2023-12-28T03:15:47;2.25;;;2.05;;
15635;SDS011;7917;50.818;6.972;2023-12-28T03:18:14;2.88;;;2.13;;
15635;SDS011;7917;50.818;6.972;2023-12-28T03:20:40;3.15;;;1.83;;
15635;SDS011;7917;50.818;6.972;2023-12-28T03:23:07;2.17;;;1.90;;
15635;SDS011;7917;50.818;6.972;2023-12-28T03:25:33;3.00;;;2.13;;
15635;SDS011;7917;50.818;6.972;2023-12-28T03:27:59;3.33;;;2.10;;
15635;SDS011;7917;50.818;6.972;2023-12-28T03:30:26;3.50;;;2.20;;
15635;SDS011;7917;50.818;6.972;2023-12-28T03:32:53;2.85;;;2.05;;
15635;SDS011;7917;50.818;6.972;2023-12-28T03:35:19;2.30;;;1.90;;
15635;SDS011;7917;50.818;6.972;2023-12-28T03:37:46;3.88;;;1.98;;
15635;SDS011;7917;50.818;6.972;2023-12-28T03:40:12;3.45;;;2.45;;
15635;SDS011;7917;50.818;6.972;2023-12-28T03:42:39;15.55;;;2.45;;
15635;SDS011;7917;50.818;6.972;2023-12-28T03:45:06;2.10;;;1.90;;
15635;SDS011;7917;50.818;6.972;2023-12-28T03:47:33;3.35;;;2.30;;
15635;SDS011;7917;50.818;6.972;2023-12-28T03:50:00;3.75;;;2.63;;
15635;SDS011;7917;50.818;6.972;2023-12-28T03:52:27;2.28;;;1.95;;
15635;SDS011;7917;50.818;6.972;2023-12-28T03:54:55;4.13;;;2.35;;
15635;SDS011;7917;50.818;6.972;2023-12-28T03:57:21;3.78;;;2.35;;
15635;SDS011;7917;50.818;6.972;2023-12-28T03:59:47;4.63;;;2.42;;
15635;SDS011;7917;50.818;6.972;2023-12-28T04:05:28;2.53;;;2.03;;
15635;SDS011;7917;50.818;6.972;2023-12-28T04:07:54;2.35;;;2.15;;
15635;SDS011;7917;50.818;6.972;2023-12-28T04:10:28;6.75;;;2.40;;
15635;SDS011;7917;50.818;6.972;2023-12-28T04:12:55;2.40;;;2.20;;
15635;SDS011;7917;50.818;6.972;2023-12-28T04:15:22;3.35;;;2.42;;
15635;SDS011;7917;50.818;6.972;2023-12-28T04:17:49;3.78;;;2.42;;
15635;SDS011;7917;50.818;6.972;2023-12-28T04:20:15;4.97;;;2.55;;
15635;SDS011;7917;50.818;6.972;2023-12-28T04:22:43;3.08;;;2.05;;
15635;SDS011;7917;50.818;6.972;2023-12-28T04:25:10;2.70;;;2.05;;
15635;SDS011;7917;50.818;6.972;2023-12-28T04:27:37;3.60;;;2.40;;
15635;SDS011;7917;50.818;6.972;2023-12-28T04:30:04;3.75;;;2.60;;
15635;SDS011;7917;50.818;6.972;2023-12-28T04:32:31;3.92;;;2.22;;
15635;SDS011;7917;50.818;6.972;2023-12-28T04:34:58;3.35;;;2.53;;
15635;SDS011;7917;50.818;6.972;2023-12-28T04:37:24;9.77;;;3.72;;
15635;SDS011;7917;50.818;6.972;2023-12-28T04:39:52;3.28;;;2.40;;
15635;SDS011;7917;50.818;6.972;2023-12-28T04:42:19;4.35;;;1.85;;
15635;SDS011;7917;50.818;6.972;2023-12-28T04:44:45;3.53;;;2.20;;
15635;SDS011;7917;50.818;6.972;2023-12-28T04:47:11;2.47;;;2.05;;
15635;SDS011;7917;50.818;6.972;2023-12-28T04:49:38;3.83;;;2.53;;
15635;SDS011;7917;50.818;6.972;2023-12-28T04:52:04;2.53;;;2.17;;
15635;SDS011;7917;50.818;6.972;2023-12-28T04:54:31;3.45;;;2.38;;
15635;SDS011;7917;50.818;6.972;2023-12-28T04:56:58;2.53;;;2.25;;
15635;SDS011;7917;50.818;6.972;2023-12-28T04:59:25;3.47;;;2.40;;
15635;SDS011;7917;50.818;6.972;2023-12-28T05:01:51;2.60;;;2.13;;
15635;SDS011;7917;50.818;6.972;2023-12-28T05:04:17;2.92;;;2.50;;
15635;SDS011;7917;50.818;6.972;2023-12-28T05:06:44;5.25;;;2.40;;
15635;SDS011;7917;50.818;6.972;2023-12-28T05:09:10;2.25;;;2.00;;
15635;SDS011;7917;50.818;6.972;2023-12-28T05:11:36;5.20;;;2.58;;
15635;SDS011;7917;50.818;6.972;2023-12-28T05:14:04;2.85;;;2.38;;
15635;SDS011;7917;50.818;6.972;2023-12-28T05:16:31;3.55;;;2.63;;
15635;SDS011;7917;50.818;6.972;2023-12-28T05:18:57;2.83;;;2.08;;
15635;SDS011;7917;50.818;6.972;2023-12-28T05:21:24;3.50;;;2.50;;
15635;SDS011;7917;50.818;6.972;2023-12-28T05:23:50;4.22;;;2.60;;
15635;SDS011;7917;50.818;6.972;2023-12-28T05:26:17;5.57;;;3.20;;
15635;SDS011;7917;50.818;6.972;2023-12-28T05:28:43;6.28;;;3.42;;
15635;SDS011;7917;50.818;6.972;2023-12-28T05:31:11;7.60;;;2.92;;
15635;SDS011;7917;50.818;6.972;2023-12-28T05:33:38;3.63;;;2.92;;
15635;SDS011;7917;50.818;6.972;2023-12-28T05:36:05;7.03;;;2.67;;
15635;SDS011;7917;50.818;6.972;2023-12-28T05:38:31;4.65;;;3.10;;
15635;SDS011;7917;50.818;6.972;2023-12-28T05:40:58;4.47;;;2.95;;
15635;SDS011;7917;50.818;6.972;2023-12-28T05:43:25;5.03;;;2.80;;
15635;SDS011;7917;50.818;6.972;2023-12-28T05:45:52;3.70;;;2.40;;
15635;SDS011;7917;50.818;6.972;2023-12-28T05:48:19;4.20;;;2.40;;
15635;SDS011;7917;50.818;6.972;2023-12-28T05:50:45;4.38;;;3.17;;
15635;SDS011;7917;50.818;6.972;2023-12-28T05:53:12;4.70;;;2.28;;
15635;SDS011;7917;50.818;6.972;2023-12-28T05:55:39;2.75;;;2.15;;
15635;SDS011;7917;50.818;6.972;2023-12-28T05:58:05;3.10;;;2.13;;
15635;SDS011;7917;50.818;6.972;2023-12-28T06:00:32;5.07;;;2.30;;
15635;SDS011;7917;50.818;6.972;2023-12-28T06:02:58;4.80;;;2.65;;
15635;SDS011;7917;50.818;6.972;2023-12-28T06:05:28;4.18;;;2.33;;
15635;SDS011;7917;50.818;6.972;2023-12-28T06:07:54;3.25;;;2.83;;
15635;SDS011;7917;50.818;6.972;2023-12-28T06:10:20;4.03;;;2.45;;
15635;SDS011;7917;50.818;6.972;2023-12-28T06:12:47;5.68;;;2.42;;
15635;SDS011;7917;50.818;6.972;2023-12-28T06:15:13;3.92;;;2.28;;
15635;SDS011;7917;50.818;6.972;2023-12-28T06:17:40;5.95;;;3.08;;
15635;SDS011;7917;50.818;6.972;2023-12-28T06:20:06;5.47;;;3.45;;
15635;SDS011;7917;50.818;6.972;2023-12-28T06:22:36;4.18;;;2.60;;
15635;SDS011;7917;50.818;6.972;2023-12-28T06:25:02;6.22;;;2.60;;
15635;SDS011;7917;50.818;6.972;2023-12-28T06:27:29;6.38;;;2.83;;
15635;SDS011;7917;50.818;6.972;2023-12-28T06:29:56;3.90;;;3.13;;
15635;SDS011;7917;50.818;6.972;2023-12-28T06:32:22;4.45;;;2.95;;
15635;SDS011;7917;50.818;6.972;2023-12-28T06:34:49;4.75;;;3.20;;
15635;SDS011;7917;50.818;6.972;2023-12-28T06:37:15;3.95;;;3.10;;
15635;SDS011;7917;50.818;6.972;2023-12-28T06:39:43;10.55;;;3.05;;
15635;SDS011;7917;50.818;6.972;2023-12-28T06:42:09;4.95;;;3.22;;
15635;SDS011;7917;50.818;6.972;2023-12-28T06:44:36;5.32;;;3.28;;
15635;SDS011;7917;50.818;6.972;2023-12-28T06:47:02;5.20;;;3.08;;
15635;SDS011;7917;50.818;6.972;2023-12-28T06:49:29;4.68;;;3.08;;
15635;SDS011;7917;50.818;6.972;2023-12-28T06:51:55;5.97;;;3.10;;
15635;SDS011;7917;50.818;6.972;2023-12-28T06:54:22;3.95;;;2.65;;
15635;SDS011;7917;50.818;6.972;2023-12-28T06:56:50;5.90;;;2.97;;
15635;SDS011;7917;50.818;6.972;2023-12-28T06:59:16;6.68;;;3.15;;
15635;SDS011;7917;50.818;6.972;2023-12-28T07:01:43;3.75;;;2.50;;
15635;SDS011;7917;50.818;6.972;2023-12-28T07:04:10;3.80;;;2.72;;
15635;SDS011;7917;50.818;6.972;2023-12-28T07:06:37;6.18;;;2.80;;
15635;SDS011;7917;50.818;6.972;2023-12-28T07:09:03;5.32;;;3.15;;
15635;SDS011;7917;50.818;6.972;2023-12-28T07:11:30;7.43;;;3.08;;
15635;SDS011;7917;50.818;6.972;2023-12-28T07:13:57;6.82;;;2.67;;
15635;SDS011;7917;50.818;6.972;2023-12-28T07:16:24;5.93;;;3.05;;
15635;SDS011;7917;50.818;6.972;2023-12-28T07:18:51;4.53;;;2.50;;
15635;SDS011;7917;50.818;6.972;2023-12-28T07:21:18;4.97;;;2.95;;
15635;SDS011;7917;50.818;6.972;2023-12-28T07:23:44;3.75;;;2.50;;
15635;SDS011;7917;50.818;6.972;2023-12-28T07:26:14;6.57;;;3.15;;
15635;SDS011;7917;50.818;6.972;2023-12-28T07:28:41;4.25;;;2.70;;
15635;SDS011;7917;50.818;6.972;2023-12-28T07:31:10;4.75;;;2.67;;
15635;SDS011;7917;50.818;6.972;2023-12-28T07:33:37;3.75;;;2.92;;
15635;SDS011;7917;50.818;6.972;2023-12-28T07:36:03;6.35;;;3.22;;
15635;SDS011;7917;50.818;6.972;2023-12-28T07:38:31;7.53;;;2.95;;
15635;SDS011;7917;50.818;6.972;2023-12-28T07:40:57;5.38;;;2.67;;
15635;SDS011;7917;50.818;6.972;2023-12-28T07:43:24;8.18;;;3.08;;
15635;SDS011;7917;50.818;6.972;2023-12-28T07:45:50;4.75;;;3.03;;
15635;SDS011;7917;50.818;6.972;2023-12-28T07:48:17;5.70;;;3.10;;
15635;SDS011;7917;50.818;6.972;2023-12-28T07:50:44;5.03;;;2.90;;
15635;SDS011;7917;50.818;6.972;2023-12-28T07:53:10;4.22;;;2.80;;
15635;SDS011;7917;50.818;6.972;2023-12-28T07:55:37;5.75;;;3.20;;
15635;SDS011;7917;50.818;6.972;2023-12-28T07:58:03;3.42;;;2.38;;
15635;SDS011;7917;50.818;6.972;2023-12-28T08:00:29;5.93;;;3.08;;
15635;SDS011;7917;50.818;6.972;2023-12-28T08:02:56;5.70;;;2.88;;
15635;SDS011;7917;50.818;6.972;2023-12-28T08:05:23;5.18;;;3.20;;
15635;SDS011;7917;50.818;6.972;2023-12-28T08:07:49;7.28;;;2.88;;
15635;SDS011;7917;50.818;6.972;2023-12-28T08:10:15;4.55;;;2.80;;
15635;SDS011;7917;50.818;6.972;2023-12-28T08:12:42;5.18;;;2.90;;
15635;SDS011;7917;50.818;6.972;2023-12-28T08:15:08;11.38;;;3.83;;
15635;SDS011;7917;50.818;6.972;2023-12-28T08:17:35;10.57;;;4.93;;
15635;SDS011;7917;50.818;6.972;2023-12-28T08:20:01;13.07;;;7.25;;
15635;SDS011;7917;50.818;6.972;2023-12-28T08:22:29;6.18;;;4.35;;
15635;SDS011;7917;50.818;6.972;2023-12-28T08:24:56;8.13;;;4.18;;
15635;SDS011;7917;50.818;6.972;2023-12-28T08:27:23;6.70;;;4.15;;
15635;SDS011;7917;50.818;6.972;2023-12-28T08:29:49;5.50;;;3.25;;
15635;SDS011;7917;50.818;6.972;2023-12-28T08:32:16;9.70;;;3.13;;
15635;SDS011;7917;50.818;6.972;2023-12-28T08:34:42;9.10;;;2.83;;
15635;SDS011;7917;50.818;6.972;2023-12-28T08:37:09;7.15;;;3.15;;
15635;SDS011;7917;50.818;6.972;2023-12-28T08:39:36;7.45;;;3.00;;
15635;SDS011;7917;50.818;6.972;2023-12-28T08:42:03;5.30;;;2.47;;
15635;SDS011;7917;50.818;6.972;2023-12-28T08:44:30;6.70;;;2.72;;
15635;SDS011;7917;50.818;6.972;2023-12-28T08:46:56;6.70;;;3.53;;
15635;SDS011;7917;50.818;6.972;2023-12-28T08:49:23;9.38;;;3.33;;
15635;SDS011;7917;50.818;6.972;2023-12-28T08:51:50;7.10;;;3.78;;
15635;SDS011;7917;50.818;6.972;2023-12-28T08:54:17;4.97;;;2.90;;
15635;SDS011;7917;50.818;6.972;2023-12-28T08:56:44;7.63;;;3.00;;
15635;SDS011;7917;50.818;6.972;2023-12-28T08:59:10;5.72;;;2.60;;
15635;SDS011;7917;50.818;6.972;2023-12-28T09:01:36;5.70;;;2.53;;
15635;SDS011;7917;50.818;6.972;2023-12-28T09:04:03;10.32;;;2.55;;
15635;SDS011;7917;50.818;6.972;2023-12-28T09:06:30;4.70;;;2.50;;
15635;SDS011;7917;50.818;6.972;2023-12-28T09:08:56;5.78;;;2.40;;
15635;SDS011;7917;50.818;6.972;2023-12-28T09:11:23;7.35;;;2.60;;
15635;SDS011;7917;50.818;6.972;2023-12-28T09:13:51;4.75;;;2.50;;
15635;SDS011;7917;50.818;6.972;2023-12-28T09:16:17;5.93;;;2.90;;
15635;SDS011;7917;50.818;6.972;2023-12-28T09:18:43;8.10;;;2.60;;
15635;SDS011;7917;50.818;6.972;2023-12-28T09:21:10;6.18;;;2.92;;
15635;SDS011;7917;50.818;6.972;2023-12-28T09:23:37;5.38;;;2.40;;
15635;SDS011;7917;50.818;6.972;2023-12-28T09:26:05;8.18;;;2.30;;
15635;SDS011;7917;50.818;6.972;2023-12-28T09:28:32;5.82;;;2.47;;
15635;SDS011;7917;50.818;6.972;2023-12-28T09:31:00;3.70;;;1.92;;
15635;SDS011;7917;50.818;6.972;2023-12-28T09:33:27;5.53;;;2.97;;
15635;SDS011;7917;50.818;6.972;2023-12-28T09:35:54;6.80;;;2.50;;
15635;SDS011;7917;50.818;6.972;2023-12-28T09:38:21;4.70;;;2.05;;
15635;SDS011;7917;50.818;6.972;2023-12-28T09:40:48;6.97;;;2.20;;
15635;SDS011;7917;50.818;6.972;2023-12-28T09:43:20;7.45;;;2.40;;
15635;SDS011;7917;50.818;6.972;2023-12-28T09:45:49;8.23;;;2.10;;
15635;SDS011;7917;50.818;6.972;2023-12-28T09:48:16;8.30;;;1.95;;
15635;SDS011;7917;50.818;6.972;2023-12-28T09:50:43;4.60;;;1.88;;
15635;SDS011;7917;50.818;6.972;2023-12-28T09:53:12;6.57;;;1.98;;
15635;SDS011;7917;50.818;6.972;2023-12-28T09:55:38;3.80;;;1.77;;
15635;SDS011;7917;50.818;6.972;2023-12-28T09:58:05;9.38;;;2.05;;
15635;SDS011;7917;50.818;6.972;2023-12-28T10:00:32;6.97;;;1.90;;
15635;SDS011;7917;50.818;6.972;2023-12-28T10:02:59;3.38;;;1.95;;
15635;SDS011;7917;50.818;6.972;2023-12-28T10:05:26;3.72;;;1.58;;
15635;SDS011;7917;50.818;6.972;2023-12-28T10:07:53;4.63;;;2.08;;
15635;SDS011;7917;50.818;6.972;2023-12-28T10:10:22;6.68;;;1.75;;
15635;SDS011;7917;50.818;6.972;2023-12-28T10:12:49;5.63;;;1.65;;
15635;SDS011;7917;50.818;6.972;2023-12-28T10:15:16;5.20;;;1.73;;
15635;SDS011;7917;50.818;6.972;2023-12-28T10:17:43;5.88;;;2.13;;
15635;SDS011;7917;50.818;6.972;2023-12-28T10:20:11;8.50;;;2.42;;
15635;SDS011;7917;50.818;6.972;2023-12-28T10:22:38;5.53;;;2.40;;
15635;SDS011;7917;50.818;6.972;2023-12-28T10:25:05;4.40;;;1.67;;
15635;SDS011;7917;50.818;6.972;2023-12-28T10:27:36;8.32;;;1.77;;
15635;SDS011;7917;50.818;6.972;2023-12-28T10:30:05;5.47;;;2.05;;
15635;SDS011;7917;50.818;6.972;2023-12-28T10:32:32;6.20;;;1.75;;
15635;SDS011;7917;50.818;6.972;2023-12-28T10:34:59;6.22;;;2.00;;
15635;SDS011;7917;50.818;6.972;2023-12-28T10:37:26;5.45;;;1.63;;
15635;SDS011;7917;50.818;6.972;2023-12-28T10:39:57;4.63;;;1.70;;
15635;SDS011;7917;50.818;6.972;2023-12-28T10:42:28;7.30;;;2.25;;
15635;SDS011;7917;50.818;6.972;2023-12-28T10:45:01;5.43;;;1.73;;
15635;SDS011;7917;50.818;6.972;2023-12-28T10:47:31;4.57;;;1.60;;
15635;SDS011;7917;50.818;6.972;2023-12-28T10:50:00;8.70;;;1.83;;
15635;SDS011;7917;50.818;6.972;2023-12-28T10:52:31;5.63;;;1.92;;
15635;SDS011;7917;50.818;6.972;2023-12-28T10:55:08;7.32;;;2.00;;
15635;SDS011;7917;50.818;6.972;2023-12-28T10:57:49;7.20;;;2.10;;
15635;SDS011;7917;50.818;6.972;2023-12-28T11:00:22;5.72;;;1.70;;
15635;SDS011;7917;50.818;6.972;2023-12-28T11:02:52;7.35;;;1.77;;
15635;SDS011;7917;50.818;6.972;2023-12-28T11:05:20;7.72;;;1.98;;
15635;SDS011;7917;50.818;6.972;2023-12-28T11:07:48;7.22;;;1.63;;
15635;SDS011;7917;50.818;6.972;2023-12-28T11:10:19;5.32;;;1.70;;
15635;SDS011;7917;50.818;6.972;2023-12-28T11:12:48;6.22;;;2.05;;
15635;SDS011;7917;50.818;6.972;2023-12-28T11:15:17;4.35;;;1.75;;
15635;SDS011;7917;50.818;6.972;2023-12-28T11:17:44;4.90;;;1.52;;
15635;SDS011;7917;50.818;6.972;2023-12-28T11:20:11;5.93;;;1.55;;
15635;SDS011;7917;50.818;6.972;2023-12-28T11:22:39;5.93;;;1.95;;
15635;SDS011;7917;50.818;6.972;2023-12-28T11:25:06;6.70;;;1.65;;
15635;SDS011;7917;50.818;6.972;2023-12-28T11:27:41;5.70;;;1.52;;
15635;SDS011;7917;50.818;6.972;2023-12-28T11:30:09;3.50;;;1.52;;
15635;SDS011;7917;50.818;6.972;2023-12-28T11:32:37;6.20;;;1.52;;
15635;SDS011;7917;50.818;6.972;2023-12-28T11:35:06;7.03;;;1.80;;
15635;SDS011;7917;50.818;6.972;2023-12-28T11:37:35;3.80;;;1.67;;
15635;SDS011;7917;50.818;6.972;2023-12-28T11:40:10;8.38;;;1.77;;
15635;SDS011;7917;50.818;6.972;2023-12-28T11:42:48;6.70;;;3.08;;
15635;SDS011;7917;50.818;6.972;2023-12-28T11:45:16;5.05;;;1.58;;
15635;SDS011;7917;50.818;6.972;2023-12-28T11:47:43;3.78;;;1.60;;
15635;SDS011;7917;50.818;6.972;2023-12-28T11:50:10;6.07;;;1.55;;
15635;SDS011;7917;50.818;6.972;2023-12-28T11:52:38;4.50;;;1.30;;
15635;SDS011;7917;50.818;6.972;2023-12-28T11:55:04;6.70;;;1.85;;
15635;SDS011;7917;50.818;6.972;2023-12-28T11:57:31;3.47;;;1.27;;
15635;SDS011;7917;50.818;6.972;2023-12-28T11:59:59;3.92;;;1.30;;
15635;SDS011;7917;50.818;6.972;2023-12-28T12:02:27;6.32;;;1.58;;
15635;SDS011;7917;50.818;6.972;2023-12-28T12:04:54;5.13;;;1.67;;
15635;SDS011;7917;50.818;6.972;2023-12-28T12:07:23;4.78;;;1.40;;
15635;SDS011;7917;50.818;6.972;2023-12-28T12:09:54;4.50;;;1.40;;
15635;SDS011;7917;50.818;6.972;2023-12-28T12:12:22;4.25;;;1.10;;
15635;SDS011;7917;50.818;6.972;2023-12-28T12:14:48;7.28;;;1.77;;
15635;SDS011;7917;50.818;6.972;2023-12-28T12:17:16;4.72;;;1.55;;
15635;SDS011;7917;50.818;6.972;2023-12-28T12:19:44;4.07;;;1.33;;
15635;SDS011;7917;50.818;6.972;2023-12-28T12:22:14;7.30;;;1.60;;
15635;SDS011;7917;50.818;6.972;2023-12-28T12:24:41;6.28;;;1.77;;
15635;SDS011;7917;50.818;6.972;2023-12-28T12:27:10;6.32;;;1.77;;
15635;SDS011;7917;50.818;6.972;2023-12-28T12:29:45;6.93;;;1.65;;
15635;SDS011;7917;50.818;6.972;2023-12-28T12:32:12;5.03;;;1.30;;
15635;SDS011;7917;50.818;6.972;2023-12-28T12:34:39;5.88;;;1.90;;
15635;SDS011;7917;50.818;6.972;2023-12-28T12:37:06;6.85;;;2.15;;
15635;SDS011;7917;50.818;6.972;2023-12-28T12:39:33;3.83;;;1.67;;
15635;SDS011;7917;50.818;6.972;2023-12-28T12:41:59;9.02;;;1.85;;
15635;SDS011;7917;50.818;6.972;2023-12-28T12:44:26;7.95;;;1.98;;
15635;SDS011;7917;50.818;6.972;2023-12-28T12:46:56;7.45;;;1.70;;
15635;SDS011;7917;50.818;6.972;2023-12-28T12:49:24;4.60;;;1.23;;
15635;SDS011;7917;50.818;6.972;2023-12-28T12:51:52;8.00;;;1.83;;
15635;SDS011;7917;50.818;6.972;2023-12-28T12:54:19;4.25;;;1.48;;
15635;SDS011;7917;50.818;6.972;2023-12-28T12:56:46;5.95;;;1.38;;
15635;SDS011;7917;50.818;6.972;2023-12-28T12:59:13;5.82;;;1.70;;
15635;SDS011;7917;50.818;6.972;2023-12-28T13:01:42;8.25;;;1.30;;
15635;SDS011;7917;50.818;6.972;2023-12-28T13:04:09;5.32;;;1.95;;
15635;SDS011;7917;50.818;6.972;2023-12-28T13:06:36;5.78;;;1.30;;
15635;SDS011;7917;50.818;6.972;2023-12-28T13:09:03;8.30;;;1.70;;
15635;SDS011;7917;50.818;6.972;2023-12-28T13:11:32;5.03;;;1.77;;
15635;SDS011;7917;50.818;6.972;2023-12-28T13:13:59;5.38;;;1.33;;
15635;SDS011;7917;50.818;6.972;2023-12-28T13:16:26;6.63;;;1.50;;
15635;SDS011;7917;50.818;6.972;2023-12-28T13:18:53;6.78;;;1.50;;
15635;SDS011;7917;50.818;6.972;2023-12-28T13:21:19;5.75;;;1.33;;
15635;SDS011;7917;50.818;6.972;2023-12-28T13:23:46;11.73;;;2.00;;
15635;SDS011;7917;50.818;6.972;2023-12-28T13:26:13;4.95;;;1.50;;
15635;SDS011;7917;50.818;6.972;2023-12-28T13:28:40;9.75;;;1.80;;
15635;SDS011;7917;50.818;6.972;2023-12-28T13:31:08;4.68;;;1.35;;
15635;SDS011;7917;50.818;6.972;2023-12-28T13:33:34;5.15;;;1.70;;
15635;SDS011;7917;50.818;6.972;2023-12-28T13:36:01;6.10;;;1.60;;
15635;SDS011;7917;50.818;6.972;2023-12-28T13:38:27;7.22;;;1.50;;
15635;SDS011;7917;50.818;6.972;2023-12-28T13:40:54;11.30;;;1.98;;
15635;SDS011;7917;50.818;6.972;2023-12-28T13:43:21;10.68;;;2.72;;
15635;SDS011;7917;50.818;6.972;2023-12-28T13:45:47;4.65;;;1.70;;
15635;SDS011;7917;50.818;6.972;2023-12-28T13:48:14;5.38;;;1.50;;
15635;SDS011;7917;50.818;6.972;2023-12-28T13:50:41;9.73;;;1.63;;
15635;SDS011;7917;50.818;6.972;2023-12-28T13:53:09;6.00;;;1.55;;
15635;SDS011;7917;50.818;6.972;2023-12-28T13:55:35;5.75;;;2.25;;
15635;SDS011;7917;50.818;6.972;2023-12-28T13:58:02;4.00;;;1.30;;
15635;SDS011;7917;50.818;6.972;2023-12-28T14:00:31;4.68;;;1.67;;
15635;SDS011;7917;50.818;6.972;2023-12-28T14:02:57;6.97;;;1.88;;
15635;SDS011;7917;50.818;6.972;2023-12-28T14:05:24;4.20;;;1.63;;
15635;SDS011;7917;50.818;6.972;2023-12-28T14:07:51;3.15;;;1.30;;
15635;SDS011;7917;50.818;6.972;2023-12-28T14:10:18;6.72;;;1.40;;
15635;SDS011;7917;50.818;6.972;2023-12-28T14:12:44;5.47;;;1.65;;
15635;SDS011;7917;50.818;6.972;2023-12-28T14:15:11;6.57;;;2.17;;
15635;SDS011;7917;50.818;6.972;2023-12-28T14:17:41;4.03;;;1.95;;
15635;SDS011;7917;50.818;6.972;2023-12-28T14:20:08;6.32;;;1.70;;
15635;SDS011;7917;50.818;6.972;2023-12-28T14:22:37;5.18;;;1.45;;
15635;SDS011;7917;50.818;6.972;2023-12-28T14:25:04;6.45;;;2.10;;
15635;SDS011;7917;50.818;6.972;2023-12-28T14:27:32;5.65;;;1.38;;
15635;SDS011;7917;50.818;6.972;2023-12-28T14:29:59;7.80;;;1.95;;
15635;SDS011;7917;50.818;6.972;2023-12-28T14:32:28;4.72;;;1.83;;
15635;SDS011;7917;50.818;6.972;2023-12-28T14:34:56;5.70;;;2.00;;
15635;SDS011;7917;50.818;6.972;2023-12-28T14:37:24;4.53;;;1.92;;
15635;SDS011;7917;50.818;6.972;2023-12-28T14:39:50;9.30;;;1.45;;
15635;SDS011;7917;50.818;6.972;2023-12-28T14:42:17;4.22;;;1.30;;
15635;SDS011;7917;50.818;6.972;2023-12-28T14:44:44;10.85;;;3.13;;
15635;SDS011;7917;50.818;6.972;2023-12-28T14:47:10;5.95;;;1.70;;
15635;SDS011;7917;50.818;6.972;2023-12-28T14:49:37;6.25;;;2.17;;
15635;SDS011;7917;50.818;6.972;2023-12-28T14:52:05;5.93;;;1.90;;
15635;SDS011;7917;50.818;6.972;2023-12-28T14:54:31;8.88;;;1.83;;
15635;SDS011;7917;50.818;6.972;2023-12-28T14:56:58;6.70;;;1.80;;
15635;SDS011;7917;50.818;6.972;2023-12-28T14:59:25;5.13;;;1.67;;
15635;SDS011;7917;50.818;6.972;2023-12-28T15:01:51;3.35;;;1.63;;
15635;SDS011;7917;50.818;6.972;2023-12-28T15:04:18;3.30;;;1.50;;